createdAt,value
2023-06-02T00:00:21.605Z,21.05
2023-06-02T00:02:48.559Z,23.77
2023-06-02T00:05:15.519Z,25.88
2023-06-02T00:07:42.330Z,16.73
2023-06-02T00:10:09.903Z,21.05
2023-06-02T00:12:38.083Z,21.00
2023-06-02T00:15:05.761Z,17.85
2023-06-02T00:17:32.633Z,16.77
2023-06-02T00:20:00.600Z,18.05
2023-06-02T00:22:27.344Z,18.52
2023-06-02T00:24:54.160Z,21.70
2023-06-02T00:27:20.950Z,16.38
2023-06-02T00:29:49.078Z,16.77
2023-06-02T00:32:15.825Z,20.45
2023-06-02T00:34:42.641Z,13.85
2023-06-02T00:37:09.417Z,16.45
2023-06-02T00:39:36.152Z,25.88
2023-06-02T00:42:03.873Z,29.27
2023-06-02T00:44:35.056Z,18.15
2023-06-02T00:47:03.103Z,21.42
2023-06-02T00:49:29.881Z,19.90
2023-06-02T00:51:57.925Z,15.63
2023-06-02T00:54:26.171Z,21.02
2023-06-02T00:56:52.809Z,28.60
2023-06-02T00:59:20.799Z,18.15
2023-06-02T01:01:47.693Z,19.35
2023-06-02T01:04:16.147Z,17.63
2023-06-02T01:06:43.427Z,21.92
2023-06-02T01:09:12.376Z,17.65
2023-06-02T01:11:39.105Z,18.52
2023-06-02T01:14:05.961Z,23.83
2023-06-02T01:16:32.697Z,19.70
2023-06-02T01:18:59.972Z,17.13
2023-06-02T01:21:32.156Z,17.90
2023-06-02T01:24:00.211Z,17.65
2023-06-02T01:26:27.940Z,24.13
2023-06-02T01:28:54.932Z,23.33
2023-06-02T01:31:26.582Z,17.70
2023-06-02T01:34:03.397Z,28.58
2023-06-02T01:36:33.847Z,21.52
2023-06-02T01:39:03.122Z,18.73
2023-06-02T01:41:32.286Z,15.18
2023-06-02T01:44:00.168Z,18.95
2023-06-02T01:46:27.526Z,15.55
2023-06-02T01:48:54.344Z,18.58
2023-06-02T01:51:21.496Z,22.67
2023-06-02T01:53:48.372Z,21.92
2023-06-02T01:56:16.438Z,15.35
2023-06-02T01:58:43.099Z,13.40
2023-06-02T02:01:09.837Z,20.13
2023-06-02T02:03:36.704Z,21.70
2023-06-02T02:06:03.985Z,29.95
2023-06-02T02:08:30.877Z,20.25
2023-06-02T02:10:57.553Z,30.90
2023-06-02T02:13:25.572Z,18.15
2023-06-02T02:15:52.256Z,15.10
2023-06-02T02:18:18.938Z,18.58
2023-06-02T02:20:45.557Z,20.83
2023-06-02T02:23:12.232Z,14.43
2023-06-02T02:25:38.937Z,26.95
2023-06-02T02:28:05.660Z,22.83
2023-06-02T02:30:33.739Z,27.58
2023-06-02T02:33:00.412Z,15.23
2023-06-02T02:35:27.113Z,19.50
2023-06-02T02:37:53.957Z,15.68
2023-06-02T02:40:20.700Z,18.63
2023-06-02T02:42:47.392Z,18.02
2023-06-02T02:45:14.461Z,18.05
2023-06-02T02:47:42.552Z,17.73
2023-06-02T02:50:10.349Z,23.20
2023-06-02T02:52:37.191Z,20.85
2023-06-02T02:55:04.823Z,18.08
2023-06-02T02:57:31.495Z,23.77
2023-06-02T02:59:58.314Z,23.10
2023-06-02T03:02:25.041Z,12.90
2023-06-02T03:04:53.250Z,21.95
2023-06-02T03:07:20.102Z,19.48
2023-06-02T03:09:46.905Z,17.38
2023-06-02T03:12:13.616Z,22.85
2023-06-02T03:14:40.303Z,20.58
2023-06-02T03:17:08.001Z,22.08
2023-06-02T03:19:35.028Z,16.45
2023-06-02T03:22:03.165Z,15.65
2023-06-02T03:24:30.020Z,19.23
2023-06-02T03:26:57.374Z,20.35
2023-06-02T03:29:24.185Z,21.20
2023-06-02T03:31:52.064Z,22.23
2023-06-02T03:34:18.819Z,19.70
2023-06-02T03:36:45.501Z,17.33
2023-06-02T03:39:13.551Z,22.80
2023-06-02T03:41:40.279Z,20.42
2023-06-02T03:44:07.223Z,25.85
2023-06-02T03:46:34.597Z,29.00
2023-06-02T03:49:02.070Z,13.73
2023-06-02T03:51:28.737Z,20.92
2023-06-02T03:53:55.483Z,25.38
2023-06-02T03:56:23.732Z,22.75
2023-06-02T03:58:50.667Z,18.15
2023-06-02T04:01:17.923Z,19.38
2023-06-02T04:03:44.891Z,15.70
2023-06-02T04:06:12.974Z,31.85
2023-06-02T04:08:40.090Z,23.88
2023-06-02T04:11:07.604Z,17.20
2023-06-02T04:13:35.663Z,17.38
2023-06-02T04:16:02.949Z,15.57
2023-06-02T04:18:31.395Z,22.08
2023-06-02T04:20:58.217Z,20.75
2023-06-02T04:23:24.896Z,19.13
2023-06-02T04:25:51.561Z,16.33
2023-06-02T04:28:18.366Z,19.13
2023-06-02T04:30:47.156Z,21.10
2023-06-02T04:33:13.980Z,26.75
2023-06-02T04:35:40.672Z,23.67
2023-06-02T04:38:07.459Z,18.45
2023-06-02T04:40:34.210Z,12.70
2023-06-02T04:43:01.089Z,23.58
2023-06-02T04:45:27.773Z,16.95
2023-06-02T04:47:55.938Z,25.33
2023-06-02T04:50:22.706Z,20.95
2023-06-02T04:52:49.373Z,16.13
2023-06-02T04:55:16.078Z,21.90
2023-06-02T04:57:42.988Z,24.10
2023-06-02T05:00:11.055Z,20.73
2023-06-02T05:02:37.793Z,23.13
2023-06-02T05:05:07.368Z,24.10
2023-06-02T05:07:34.109Z,21.90
2023-06-02T05:10:00.805Z,25.83
2023-06-02T05:12:27.517Z,22.60
2023-06-02T05:14:54.287Z,21.75
2023-06-02T05:17:25.144Z,16.55
2023-06-02T05:19:52.066Z,25.70
2023-06-02T05:22:20.240Z,26.35
2023-06-02T05:24:46.945Z,19.02
2023-06-02T05:27:13.668Z,16.05
2023-06-02T05:29:40.674Z,25.70
2023-06-02T05:32:08.199Z,25.15
2023-06-02T05:34:34.935Z,21.73
2023-06-02T05:37:02.346Z,26.60
2023-06-02T05:39:30.863Z,23.95
2023-06-02T05:41:57.781Z,23.45
2023-06-02T05:44:24.491Z,23.55
2023-06-02T05:46:51.225Z,22.90
2023-06-02T05:49:17.917Z,23.13
2023-06-02T05:51:44.689Z,23.33
2023-06-02T05:54:11.421Z,24.60
2023-06-02T05:56:39.503Z,30.25
2023-06-02T05:59:06.779Z,22.00
2023-06-02T06:01:33.471Z,17.95
2023-06-02T06:04:00.312Z,24.67
2023-06-02T06:06:27.189Z,23.42
2023-06-02T06:08:54.423Z,24.75
2023-06-02T06:11:21.244Z,25.45
2023-06-02T06:13:49.435Z,25.35
2023-06-02T06:16:16.168Z,22.30
2023-06-02T06:18:42.976Z,14.82
2023-06-02T06:21:10.130Z,23.40
2023-06-02T06:23:36.902Z,27.25
2023-06-02T06:26:03.844Z,20.70
2023-06-02T06:28:30.772Z,29.60
2023-06-02T06:30:58.835Z,18.33
2023-06-02T06:33:25.463Z,16.23
2023-06-02T06:35:52.141Z,21.35
2023-06-02T06:38:18.780Z,26.27
2023-06-02T06:40:45.456Z,11.15
2023-06-02T06:43:23.767Z,24.98
2023-06-02T06:45:51.807Z,26.50
2023-06-02T06:48:20.018Z,26.23
2023-06-02T06:50:48.239Z,22.25
2023-06-02T06:53:14.941Z,21.23
2023-06-02T06:55:41.756Z,18.67
2023-06-02T06:58:08.402Z,28.10
2023-06-02T07:00:35.212Z,19.25
2023-06-02T07:03:02.026Z,24.85
2023-06-02T07:05:30.344Z,18.52
2023-06-02T07:07:57.680Z,18.65
2023-06-02T07:10:24.518Z,27.55
2023-06-02T07:12:51.257Z,25.33
2023-06-02T07:15:18.142Z,24.88
2023-06-02T07:17:44.919Z,25.75
2023-06-02T07:20:13.621Z,30.25
2023-06-02T07:22:41.663Z,19.55
2023-06-02T07:25:09.269Z,29.83
2023-06-02T07:27:36.052Z,24.10
2023-06-02T07:30:03.122Z,17.98
2023-06-02T07:32:29.879Z,18.33
2023-06-02T07:34:56.655Z,22.33
2023-06-02T07:37:23.314Z,15.02
2023-06-02T07:39:51.582Z,19.25
2023-06-02T07:42:19.299Z,23.45
2023-06-02T07:44:46.018Z,17.50
2023-06-02T07:47:12.860Z,24.40
2023-06-02T07:49:39.993Z,21.67
2023-06-02T07:52:07.000Z,14.82
2023-06-02T07:54:33.868Z,18.35
2023-06-02T07:57:02.074Z,19.98
2023-06-02T07:59:28.797Z,16.45
2023-06-02T08:01:55.687Z,18.02
2023-06-02T08:04:22.521Z,27.35
2023-06-02T08:06:49.279Z,19.40
2023-06-02T08:09:16.258Z,20.70
2023-06-02T08:11:42.938Z,13.00
2023-06-02T08:14:11.091Z,18.83
2023-06-02T08:16:56.303Z,15.38
2023-06-02T08:19:24.573Z,15.55
2023-06-02T08:21:51.447Z,14.02
2023-06-02T08:24:18.199Z,15.90
2023-06-02T08:26:44.854Z,15.75
2023-06-02T08:29:13.080Z,12.50
2023-06-02T08:31:40.101Z,12.00
2023-06-02T08:34:07.493Z,15.85
2023-06-02T08:36:34.610Z,12.90
2023-06-02T08:39:01.910Z,12.48
2023-06-02T08:41:29.246Z,11.52
2023-06-02T08:43:55.958Z,11.77
2023-06-02T08:46:24.178Z,14.93
2023-06-02T08:48:53.841Z,13.57
2023-06-02T08:51:22.286Z,13.20
2023-06-02T08:53:49.560Z,11.18
2023-06-02T08:56:16.939Z,15.00
2023-06-02T08:58:45.817Z,14.10
2023-06-02T09:01:12.842Z,14.07
2023-06-02T09:03:46.752Z,12.25
2023-06-02T09:06:21.269Z,12.80
2023-06-02T09:08:55.812Z,9.98
2023-06-02T09:11:22.566Z,9.50
2023-06-02T09:13:49.702Z,10.50
2023-06-02T09:16:16.465Z,11.23
2023-06-02T09:18:57.588Z,5.70
2023-06-02T09:21:25.308Z,6.18
2023-06-02T09:24:04.009Z,8.05
2023-06-02T09:26:38.738Z,2.60
2023-06-02T09:29:09.351Z,3.88
2023-06-02T09:31:47.062Z,2.58
2023-06-02T09:34:16.668Z,9.07
2023-06-02T09:36:43.869Z,3.83
2023-06-02T09:39:10.734Z,4.93
2023-06-02T09:41:38.634Z,4.40
2023-06-02T09:44:12.307Z,5.47
2023-06-02T09:46:40.766Z,4.15
2023-06-02T09:49:07.677Z,3.65
2023-06-02T09:51:36.039Z,5.97
2023-06-02T09:54:03.175Z,6.38
2023-06-02T09:56:30.761Z,2.45
2023-06-02T09:58:57.802Z,4.78
2023-06-02T10:01:24.567Z,4.50
2023-06-02T10:03:51.264Z,1.90
2023-06-02T10:06:31.260Z,1.48
2023-06-02T10:09:13.364Z,3.53
2023-06-02T10:12:01.271Z,2.22
2023-06-02T10:14:50.654Z,16.58
2023-06-02T10:17:26.175Z,6.28
2023-06-02T10:20:17.258Z,4.72
2023-06-02T10:22:56.328Z,3.28
2023-06-02T10:25:35.575Z,5.32
2023-06-02T10:28:04.183Z,6.35
2023-06-02T10:30:31.033Z,2.47
2023-06-02T10:32:57.886Z,3.47
2023-06-02T10:35:57.458Z,6.95
2023-06-02T10:38:30.183Z,6.45
2023-06-02T10:41:00.809Z,3.40
2023-06-02T10:43:27.676Z,4.28
2023-06-02T10:46:14.438Z,3.42
2023-06-02T10:48:41.941Z,3.63
2023-06-02T10:51:09.707Z,3.95
2023-06-02T10:54:15.953Z,3.40
2023-06-02T10:56:46.305Z,2.60
2023-06-02T10:59:32.958Z,5.38
2023-06-02T11:01:59.792Z,2.83
2023-06-02T11:04:28.449Z,8.30
2023-06-02T11:07:18.291Z,4.70
2023-06-02T11:09:46.226Z,9.00
2023-06-02T11:12:14.758Z,3.80
2023-06-02T11:15:15.864Z,3.42
2023-06-02T11:17:43.105Z,3.55
2023-06-02T11:20:10.339Z,6.50
2023-06-02T11:22:37.675Z,5.78
2023-06-02T11:25:05.109Z,3.05
2023-06-02T11:27:38.624Z,9.20
2023-06-02T11:30:08.072Z,3.22
2023-06-02T11:32:35.317Z,4.88
2023-06-02T11:35:03.246Z,2.15
2023-06-02T11:37:30.044Z,7.03
2023-06-02T11:39:57.350Z,4.82
2023-06-02T11:42:42.278Z,9.05
2023-06-02T11:45:20.221Z,3.72
2023-06-02T11:47:47.740Z,6.13
2023-06-02T11:50:18.115Z,6.90
2023-06-02T11:52:45.225Z,8.30
2023-06-02T11:55:12.143Z,7.53
2023-06-02T11:57:39.016Z,5.38
2023-06-02T12:00:11.958Z,5.07
2023-06-02T12:02:40.110Z,5.03
2023-06-02T12:05:11.281Z,5.93
2023-06-02T12:07:40.652Z,3.17
2023-06-02T12:10:08.924Z,4.88
2023-06-02T12:12:35.909Z,5.22
2023-06-02T12:15:17.344Z,6.22
2023-06-02T12:17:44.139Z,4.85
2023-06-02T12:20:11.148Z,3.42
2023-06-02T12:22:52.399Z,7.40
2023-06-02T12:25:19.882Z,2.40
2023-06-02T12:27:46.645Z,7.72
2023-06-02T12:30:16.225Z,8.40
2023-06-02T12:32:43.000Z,6.05
2023-06-02T12:35:10.038Z,7.93
2023-06-02T12:37:36.961Z,4.57
2023-06-02T12:40:04.028Z,6.20
2023-06-02T12:42:30.737Z,4.28
2023-06-02T12:44:57.471Z,2.58
2023-06-02T12:47:25.449Z,6.13
2023-06-02T12:49:52.208Z,5.70
2023-06-02T12:52:18.942Z,3.78
2023-06-02T12:54:45.885Z,5.03
2023-06-02T12:57:12.688Z,2.65
2023-06-02T12:59:39.517Z,7.38
2023-06-02T13:02:06.600Z,5.18
2023-06-02T13:04:34.947Z,41.40
2023-06-02T13:07:01.789Z,3.53
2023-06-02T13:09:28.792Z,5.78
2023-06-02T13:11:55.518Z,4.20
2023-06-02T13:14:22.213Z,1.95
2023-06-02T13:16:48.888Z,2.92
2023-06-02T13:19:15.645Z,1.65
2023-06-02T13:21:43.716Z,3.65
2023-06-02T13:24:10.484Z,6.85
2023-06-02T13:26:37.375Z,1.98
2023-06-02T13:29:04.917Z,2.67
2023-06-02T13:31:31.853Z,4.35
2023-06-02T13:33:58.700Z,0.85
2023-06-02T13:36:25.367Z,2.88
2023-06-02T13:38:53.490Z,3.50
2023-06-02T13:41:20.281Z,3.28
2023-06-02T13:43:46.983Z,6.78
2023-06-02T13:46:13.756Z,3.78
2023-06-02T13:48:40.459Z,2.13
2023-06-02T13:51:08.711Z,0.80
2023-06-02T13:53:35.342Z,2.03
2023-06-02T13:56:03.695Z,2.83
2023-06-02T13:58:30.680Z,6.45
2023-06-02T14:00:57.485Z,5.38
2023-06-02T14:03:24.315Z,3.22
2023-06-02T14:05:51.205Z,2.10
2023-06-02T14:08:18.056Z,3.88
2023-06-02T14:10:44.755Z,3.97
2023-06-02T14:13:13.066Z,1.00
2023-06-02T14:15:39.897Z,4.32
2023-06-02T14:18:06.670Z,6.25
2023-06-02T14:20:34.793Z,2.25
2023-06-02T14:23:01.468Z,2.20
2023-06-02T14:25:28.216Z,3.00
2023-06-02T14:27:55.132Z,0.85
2023-06-02T14:30:25.138Z,6.22
2023-06-02T14:32:51.912Z,3.65
2023-06-02T14:35:19.252Z,2.78
2023-06-02T14:37:45.901Z,8.30
2023-06-02T14:40:13.133Z,4.93
2023-06-02T14:42:40.123Z,1.67
2023-06-02T14:45:08.224Z,2.88
2023-06-02T14:47:36.537Z,2.05
2023-06-02T14:50:03.597Z,1.65
2023-06-02T14:52:30.381Z,2.05
2023-06-02T14:54:57.010Z,3.65
2023-06-02T14:57:24.439Z,1.30
2023-06-02T14:59:51.383Z,6.25
2023-06-02T15:02:18.346Z,5.22
2023-06-02T15:04:46.515Z,1.20
2023-06-02T15:07:13.294Z,1.63
2023-06-02T15:09:40.105Z,5.15
2023-06-02T15:12:08.026Z,3.65
2023-06-02T15:14:34.725Z,0.88
2023-06-02T15:17:01.601Z,0.70
2023-06-02T15:19:28.385Z,2.05
2023-06-02T15:21:56.785Z,0.80
2023-06-02T15:24:25.957Z,2.58
2023-06-02T15:26:53.032Z,2.47
2023-06-02T15:29:19.895Z,1.50
2023-06-02T15:31:47.185Z,3.83
2023-06-02T15:34:15.150Z,1.50
2023-06-02T15:36:42.029Z,2.05
2023-06-02T15:39:10.168Z,4.80
2023-06-02T15:41:37.164Z,1.17
2023-06-02T15:44:04.002Z,2.47
2023-06-02T15:46:30.776Z,0.98
2023-06-02T15:48:57.612Z,4.13
2023-06-02T15:51:25.088Z,2.72
2023-06-02T15:53:51.865Z,2.60
2023-06-02T15:56:20.282Z,1.05
2023-06-02T15:58:47.110Z,4.47
2023-06-02T16:01:13.976Z,1.73
2023-06-02T16:03:40.908Z,10.02
2023-06-02T16:06:07.910Z,1.23
2023-06-02T16:08:34.724Z,4.53
2023-06-02T16:11:01.383Z,4.72
2023-06-02T16:13:29.486Z,4.43
2023-06-02T16:15:56.167Z,4.13
2023-06-02T16:18:23.005Z,1.58
2023-06-02T16:20:50.076Z,1.65
2023-06-02T16:23:16.764Z,8.20
2023-06-02T16:25:43.659Z,2.50
2023-06-02T16:28:10.422Z,2.28
2023-06-02T16:30:38.462Z,5.22
2023-06-02T16:33:05.224Z,1.92
2023-06-02T16:35:32.001Z,2.22
2023-06-02T16:37:58.658Z,1.30
2023-06-02T16:40:25.716Z,1.75
2023-06-02T16:42:52.447Z,4.35
2023-06-02T16:45:19.110Z,1.17
2023-06-02T16:47:47.179Z,2.65
2023-06-02T16:50:13.970Z,4.78
2023-06-02T16:52:40.738Z,3.15
2023-06-02T16:55:08.103Z,6.15
2023-06-02T16:57:34.750Z,0.98
2023-06-02T17:00:03.150Z,2.80
2023-06-02T17:02:30.211Z,3.45
2023-06-02T17:04:58.280Z,1.98
2023-06-02T17:07:25.027Z,2.88
2023-06-02T17:09:51.762Z,3.60
2023-06-02T17:12:18.537Z,8.88
2023-06-02T17:14:45.395Z,2.28
2023-06-02T17:17:12.075Z,3.25
2023-06-02T17:19:38.876Z,6.82
2023-06-02T17:22:07.367Z,3.08
2023-06-02T17:24:34.636Z,2.33
2023-06-02T17:27:01.956Z,5.45
2023-06-02T17:29:28.933Z,4.13
2023-06-02T17:31:56.077Z,4.03
2023-06-02T17:34:23.607Z,3.85
2023-06-02T17:36:50.436Z,3.63
2023-06-02T17:39:18.534Z,8.50
2023-06-02T17:41:45.225Z,2.28
2023-06-02T17:44:11.850Z,0.95
2023-06-02T17:46:38.640Z,9.02
2023-06-02T17:49:05.294Z,1.80
2023-06-02T17:51:32.055Z,5.93
2023-06-02T17:53:58.772Z,1.52
2023-06-02T17:56:26.860Z,3.63
2023-06-02T17:58:53.572Z,1.50
2023-06-02T18:01:20.316Z,2.20
2023-06-02T18:03:52.616Z,4.05
2023-06-02T18:06:19.802Z,1.98
2023-06-02T18:08:47.313Z,5.72
2023-06-02T18:11:14.934Z,2.70
2023-06-02T18:13:44.553Z,3.90
2023-06-02T18:16:13.010Z,3.38
2023-06-02T18:18:40.103Z,0.80
2023-06-02T18:21:10.326Z,2.30
2023-06-02T18:23:37.484Z,5.75
2023-06-02T18:26:04.686Z,1.20
2023-06-02T18:28:31.921Z,3.92
2023-06-02T18:31:01.186Z,2.08
2023-06-02T18:33:28.324Z,2.50
2023-06-02T18:35:55.617Z,2.08
2023-06-02T18:38:22.567Z,2.70
2023-06-02T18:40:50.066Z,2.15
2023-06-02T18:43:17.831Z,1.80
2023-06-02T18:45:45.368Z,2.33
2023-06-02T18:48:14.013Z,4.93
2023-06-02T18:50:41.211Z,2.15
2023-06-02T18:53:10.978Z,4.82
2023-06-02T18:55:38.213Z,2.38
2023-06-02T18:58:05.285Z,3.55
2023-06-02T19:00:32.626Z,1.65
2023-06-02T19:02:59.622Z,3.17
2023-06-02T19:05:28.851Z,3.33
2023-06-02T19:07:56.159Z,4.18
2023-06-02T19:10:23.567Z,2.45
2023-06-02T19:12:50.819Z,3.45
2023-06-02T19:15:18.236Z,0.93
2023-06-02T19:17:45.797Z,3.75
2023-06-02T19:20:14.517Z,2.85
2023-06-02T19:22:43.463Z,4.32
2023-06-02T19:25:12.378Z,1.67
2023-06-02T19:27:41.568Z,4.28
2023-06-02T19:30:09.716Z,1.48
2023-06-02T19:32:37.025Z,3.33
2023-06-02T19:35:04.715Z,5.38
2023-06-02T19:37:32.029Z,6.38
2023-06-02T19:40:00.906Z,1.40
2023-06-02T19:42:28.064Z,1.48
2023-06-02T19:44:55.057Z,1.67
2023-06-02T19:47:22.233Z,2.35
2023-06-02T19:49:49.581Z,4.95
2023-06-02T19:52:16.828Z,1.77
2023-06-02T19:54:43.985Z,3.45
2023-06-02T19:57:12.820Z,3.75
2023-06-02T19:59:40.323Z,3.88
2023-06-02T20:02:07.867Z,2.53
2023-06-02T20:04:36.171Z,5.88
2023-06-02T20:07:03.965Z,6.32
2023-06-02T20:09:30.701Z,3.05
2023-06-02T20:11:57.409Z,3.78
2023-06-02T20:14:28.097Z,2.75
2023-06-02T20:16:55.967Z,2.88
2023-06-02T20:19:22.780Z,3.50
2023-06-02T20:21:49.474Z,2.75
2023-06-02T20:24:16.335Z,3.20
2023-06-02T20:26:43.281Z,2.30
2023-06-02T20:29:09.982Z,3.00
2023-06-02T20:31:38.189Z,4.43
2023-06-02T20:34:04.976Z,2.55
2023-06-02T20:36:31.634Z,2.13
2023-06-02T20:38:58.216Z,4.70
2023-06-02T20:41:24.919Z,1.77
2023-06-02T20:43:51.631Z,3.47
2023-06-02T20:46:18.361Z,1.80
2023-06-02T20:48:46.488Z,4.47
2023-06-02T20:51:13.157Z,0.95
2023-06-02T20:53:39.871Z,1.77
2023-06-02T20:56:06.591Z,2.28
2023-06-02T20:58:33.504Z,1.13
2023-06-02T21:01:00.205Z,1.05
2023-06-02T21:03:27.331Z,1.85
2023-06-02T21:05:55.446Z,3.22
2023-06-02T21:08:22.136Z,5.78
2023-06-02T21:10:48.748Z,2.35
2023-06-02T21:13:15.441Z,3.38
2023-06-02T21:15:42.129Z,2.50
2023-06-02T21:18:08.944Z,1.50
2023-06-02T21:20:35.797Z,6.95
2023-06-02T21:23:03.864Z,4.50
2023-06-02T21:25:30.501Z,7.72
2023-06-02T21:27:57.196Z,2.00
2023-06-02T21:30:23.834Z,2.33
2023-06-02T21:32:50.548Z,2.80
2023-06-02T21:35:17.254Z,4.07
2023-06-02T21:37:44.008Z,3.90
2023-06-02T21:40:12.521Z,3.85
2023-06-02T21:42:39.180Z,4.05
2023-06-02T21:45:07.038Z,3.25
2023-06-02T21:47:33.767Z,2.13
2023-06-02T21:50:00.606Z,3.45
2023-06-02T21:52:27.310Z,1.83
2023-06-02T21:54:53.980Z,5.20
2023-06-02T21:57:22.256Z,3.85
2023-06-02T21:59:48.912Z,3.13
2023-06-02T22:02:15.614Z,2.17
2023-06-02T22:04:42.475Z,1.88
2023-06-02T22:07:09.486Z,3.35
2023-06-02T22:09:36.463Z,2.10
2023-06-02T22:12:03.531Z,3.03
2023-06-02T22:14:31.669Z,8.77
2023-06-02T22:16:58.369Z,4.38
2023-06-02T22:19:25.375Z,2.72
2023-06-02T22:21:56.077Z,6.43
2023-06-02T22:24:27.689Z,2.80
2023-06-02T22:26:56.216Z,1.27
2023-06-02T22:29:23.121Z,3.55
2023-06-02T22:31:51.277Z,3.83
2023-06-02T22:34:18.324Z,2.40
2023-06-02T22:36:45.132Z,3.42
2023-06-02T22:39:11.980Z,3.88
2023-06-02T22:41:38.658Z,1.67
2023-06-02T22:44:05.415Z,1.08
2023-06-02T22:46:32.161Z,4.78
2023-06-02T22:49:00.388Z,2.47
2023-06-02T22:51:27.644Z,1.27
2023-06-02T22:53:54.281Z,4.90
2023-06-02T22:56:20.982Z,3.10
2023-06-02T22:58:47.696Z,5.88
2023-06-02T23:01:14.474Z,5.00
2023-06-02T23:03:41.166Z,6.72
2023-06-02T23:06:09.357Z,4.18
2023-06-02T23:08:36.378Z,3.83
2023-06-02T23:11:03.281Z,1.85
2023-06-02T23:13:30.366Z,1.38
2023-06-02T23:15:57.042Z,2.22
2023-06-02T23:18:23.668Z,1.73
2023-06-02T23:20:50.370Z,1.80
2023-06-02T23:23:18.639Z,2.05
2023-06-02T23:25:45.364Z,4.35
2023-06-02T23:28:12.372Z,3.17
2023-06-02T23:30:39.133Z,2.90
2023-06-02T23:33:06.153Z,2.97
2023-06-02T23:35:33.333Z,3.38
2023-06-02T23:38:00.228Z,3.95
2023-06-02T23:40:28.317Z,3.90
2023-06-02T23:43:01.900Z,4.00
2023-06-02T23:45:28.602Z,2.70
2023-06-02T23:47:55.492Z,4.72
2023-06-02T23:50:22.232Z,9.95
2023-06-02T23:52:48.885Z,2.55
2023-06-02T23:55:15.544Z,3.45
2023-06-02T23:57:43.583Z,1.23
